Main page
METAR-TAF:

METAR-TAF

Airports :

Stockholm Arlanda Airport

Stockholm-Arlanda, Sweden

latitude: 59-39N, longitude: 017-57E, elevation: 38 m

Current weather observation

The report was made 41 minutes ago, at 23:20 UTC
Wind 6 kt from the South
Temperature 14°C
Humidity 77%
Pressure 1025 hPa
Visibility 10 km or more
no clouds below 1500 m and no cumulonimbus

METAR: ESSA 092320Z 18006KT CAVOK 14/10 Q1025 NOSIG

Time: 02:01 (00:01 UTC)

Forecast

The report was made 31 minutes ago, at 23:30 UTC
Forecast valid from 10 at 00 UTC to 10 at 24 UTC
Wind 8 kt from the South/Southwest
Visibility 10 km or more
no clouds below 1500 m and no cumulonimbus

TAF: ESSA 092330Z 1000/1024 20008KT CAVOK

Weather observations and forecasts of more than 4000 airports (METAR and TAF reports).

The available stations are represented by yellow and red dots on the map.

Hover mouse over dot to see the name of the station.

Then click to see weather observations and forecasts.

To change the map : click on the green buttons with a black cross to zoom in, on the green button with a dash to zoom out, or on the green arrows for adjacent maps.


METAR-TAF: